createdAt,value
2019-04-07T00:00:51.187Z,100134.33
2019-04-07T00:03:20.765Z,100135.43
2019-04-07T00:05:50.878Z,100139.92
2019-04-07T00:08:20.566Z,100134.09
2019-04-07T00:10:49.573Z,100141.66
2019-04-07T00:13:19.003Z,100140.50
2019-04-07T00:15:48.043Z,100142.61
2019-04-07T00:18:17.035Z,100133.89
2019-04-07T00:20:46.057Z,100140.92
2019-04-07T00:23:15.105Z,100144.06
2019-04-07T00:25:44.311Z,100135.56
2019-04-07T00:28:13.488Z,100139.45
2019-04-07T00:30:42.883Z,100141.84
2019-04-07T00:33:12.252Z,100141.22
2019-04-07T00:35:41.251Z,100142.72
2019-04-07T00:38:10.735Z,100139.70
2019-04-07T00:40:40.397Z,100134.73
2019-04-07T00:43:09.978Z,100133.30
2019-04-07T00:45:39.157Z,100136.39
2019-04-07T00:48:09.095Z,100132.52
2019-04-07T00:50:38.359Z,100132.71
2019-04-07T00:53:07.766Z,100129.33
2019-04-07T00:55:36.759Z,100128.69
2019-04-07T00:58:06.226Z,100135.39
2019-04-07T01:00:37.326Z,100137.45
2019-04-07T01:03:07.258Z,100136.73
2019-04-07T01:05:40.489Z,100137.67
2019-04-07T01:08:07.418Z,100143.48
2019-04-07T01:10:36.937Z,100137.85
2019-04-07T01:13:06.540Z,100142.06
2019-04-07T01:15:36.081Z,100143.91
2019-04-07T01:18:06.098Z,100142.58
2019-04-07T01:20:35.447Z,100152.05
2019-04-07T01:23:05.450Z,100152.23
2019-04-07T01:25:35.723Z,100158.63
2019-04-07T01:28:05.411Z,100165.00
2019-04-07T01:30:34.938Z,100165.64
2019-04-07T01:33:05.389Z,100173.02
2019-04-07T01:35:44.940Z,100178.75
2019-04-07T01:38:05.976Z,100176.72
2019-04-07T01:40:35.582Z,100178.58
2019-04-07T01:43:19.785Z,100180.66
2019-04-07T01:46:06.561Z,100184.74
2019-04-07T01:48:58.565Z,100187.19
2019-04-07T01:51:45.580Z,100187.53
2019-04-07T01:54:42.345Z,100185.81
2019-04-07T01:57:30.351Z,100186.20
2019-04-07T02:00:19.012Z,100188.42
2019-04-07T02:03:09.981Z,100189.00
2019-04-07T02:06:07.131Z,100186.50
2019-04-07T02:08:44.190Z,100181.67
2019-04-07T02:11:36.129Z,100179.06
2019-04-07T02:14:31.213Z,100187.41
2019-04-07T02:17:21.020Z,100187.07
2019-04-07T02:20:03.733Z,100182.05
2019-04-07T02:23:07.482Z,100187.44
2019-04-07T02:25:52.775Z,100181.12
2019-04-07T02:28:43.569Z,100184.14
2019-04-07T02:31:32.092Z,100182.80
2019-04-07T02:34:26.380Z,100180.47
2019-04-07T02:37:15.349Z,100174.84
2019-04-07T02:39:54.931Z,100171.37
2019-04-07T02:42:42.688Z,100166.55
2019-04-07T02:45:24.113Z,100160.55
2019-04-07T02:47:59.764Z,100155.98
2019-04-07T02:50:36.681Z,100150.73
2019-04-07T02:53:28.783Z,100148.04
2019-04-07T02:56:22.676Z,100164.09
2019-04-07T02:59:01.329Z,100170.42
2019-04-07T03:01:36.978Z,100166.44
2019-04-07T03:04:26.312Z,100161.84
2019-04-07T03:07:27.059Z,100161.18
2019-04-07T03:10:05.161Z,100158.86
2019-04-07T03:12:59.335Z,100156.02
2019-04-07T03:15:34.526Z,100162.52
2019-04-07T03:18:35.768Z,100158.87
2019-04-07T03:21:11.778Z,100162.70
2019-04-07T03:23:59.670Z,100175.05
2019-04-07T03:26:47.909Z,100177.60
2019-04-07T03:29:54.195Z,100185.27
2019-04-07T03:32:48.411Z,100185.62
2019-04-07T03:35:25.272Z,100184.62
2019-04-07T03:38:15.275Z,100183.94
2019-04-07T03:40:55.176Z,100190.59
2019-04-07T03:44:01.755Z,100191.24
2019-04-07T03:46:52.754Z,100197.61
2019-04-07T03:49:33.551Z,100196.28
2019-04-07T03:52:11.788Z,100189.27
2019-04-07T03:55:11.722Z,100191.61
2019-04-07T03:57:47.838Z,100191.77
2019-04-07T04:01:12.214Z,100189.59
2019-04-07T04:03:52.153Z,100181.91
2019-04-07T04:06:46.100Z,100169.16
2019-04-07T04:09:24.689Z,100176.16
2019-04-07T04:11:58.714Z,100173.14
2019-04-07T04:14:32.184Z,100171.81
2019-04-07T04:17:02.024Z,100165.97
2019-04-07T04:19:31.187Z,100159.77
2019-04-07T04:22:00.646Z,100158.27
2019-04-07T04:24:30.385Z,100159.06
2019-04-07T04:26:59.608Z,100157.05
2019-04-07T04:29:28.680Z,100169.34
2019-04-07T04:31:59.629Z,100171.47
2019-04-07T04:34:29.254Z,100174.41
2019-04-07T04:36:59.931Z,100168.18
2019-04-07T04:39:29.567Z,100171.16
2019-04-07T04:41:58.550Z,100167.77
2019-04-07T04:44:28.420Z,100159.64
2019-04-07T04:46:58.380Z,100176.25
2019-04-07T04:49:28.786Z,100175.77
2019-04-07T04:51:58.639Z,100174.34
2019-04-07T04:54:29.060Z,100172.15
2019-04-07T04:56:58.920Z,100166.80
2019-04-07T04:59:28.347Z,100168.14
2019-04-07T05:01:57.697Z,100177.02
2019-04-07T05:04:26.922Z,100180.47
2019-04-07T05:06:56.983Z,100187.97
2019-04-07T05:09:39.165Z,100192.11
2019-04-07T05:11:57.448Z,100203.15
2019-04-07T05:14:27.450Z,100202.12
2019-04-07T05:16:56.661Z,100203.80
2019-04-07T05:19:26.230Z,100199.18
2019-04-07T05:21:55.878Z,100208.91
2019-04-07T05:24:25.826Z,100227.23
2019-04-07T05:26:55.788Z,100223.53
2019-04-07T05:29:24.953Z,100227.55
2019-04-07T05:31:54.439Z,100244.58
2019-04-07T05:34:23.851Z,100244.84
2019-04-07T05:36:53.393Z,100248.00
2019-04-07T05:39:23.027Z,100254.69
2019-04-07T05:41:52.588Z,100263.56
2019-04-07T05:44:21.920Z,100263.87
2019-04-07T05:46:51.606Z,100270.52
2019-04-07T05:49:23.348Z,100268.19
2019-04-07T05:51:51.785Z,100260.51
2019-04-07T05:54:20.994Z,100240.69
2019-04-07T05:56:50.242Z,100222.05
2019-04-07T05:59:20.026Z,100200.48
2019-04-07T06:01:51.662Z,100214.89
2019-04-07T06:04:20.576Z,100229.26
2019-04-07T06:06:52.730Z,100234.91
2019-04-07T06:09:20.899Z,100237.23
2019-04-07T06:11:49.940Z,100239.52
2019-04-07T06:14:19.372Z,100234.06
2019-04-07T06:16:52.518Z,100234.39
2019-04-07T06:19:20.325Z,100227.48
2019-04-07T06:21:49.920Z,100229.59
2019-04-07T06:24:22.213Z,100222.78
2019-04-07T06:26:50.425Z,100221.02
2019-04-07T06:29:20.031Z,100223.65
2019-04-07T06:31:49.559Z,100225.09
2019-04-07T06:34:19.046Z,100208.41
2019-04-07T06:36:52.701Z,100209.30
2019-04-07T06:39:20.102Z,100208.36
2019-04-07T06:41:49.480Z,100206.14
2019-04-07T06:44:21.912Z,100211.36
2019-04-07T06:47:11.909Z,100218.17
2019-04-07T06:50:06.181Z,100219.33
2019-04-07T06:52:42.064Z,100223.35
2019-04-07T06:55:32.836Z,100228.53
2019-04-07T06:58:08.357Z,100227.86
2019-04-07T07:00:56.721Z,100229.41
2019-04-07T07:03:49.866Z,100230.11
2019-04-07T07:06:37.416Z,100228.95
2019-04-07T07:09:30.689Z,100230.59
2019-04-07T07:12:20.619Z,100237.98
2019-04-07T07:15:02.555Z,100241.69
2019-04-07T07:17:47.852Z,100239.94
2019-04-07T07:20:52.678Z,100245.02
2019-04-07T07:23:26.370Z,100248.59
2019-04-07T07:25:55.576Z,100245.23
2019-04-07T07:28:24.688Z,100248.58
2019-04-07T07:30:54.684Z,100242.20
2019-04-07T07:33:24.453Z,100245.98
2019-04-07T07:35:53.855Z,100247.84
2019-04-07T07:38:23.223Z,100239.66
2019-04-07T07:40:52.640Z,100239.66
2019-04-07T07:43:22.677Z,100244.03
2019-04-07T07:45:52.253Z,100241.95
2019-04-07T07:48:26.199Z,100236.90
2019-04-07T07:50:52.112Z,100233.14
2019-04-07T07:53:24.528Z,100239.28
2019-04-07T07:55:51.984Z,100238.44
2019-04-07T07:58:21.411Z,100239.97
2019-04-07T08:00:50.683Z,100244.02
2019-04-07T08:03:22.488Z,100246.94
2019-04-07T08:05:51.297Z,100253.94
2019-04-07T08:08:21.203Z,100248.58
2019-04-07T08:10:51.749Z,100252.69
2019-04-07T08:13:21.329Z,100256.98
2019-04-07T08:15:51.378Z,100257.39
2019-04-07T08:18:21.693Z,100250.87
2019-04-07T08:20:51.246Z,100257.71
2019-04-07T08:23:20.978Z,100255.38
2019-04-07T08:25:52.907Z,100267.80
2019-04-07T08:28:21.658Z,100270.38
2019-04-07T08:30:51.333Z,100281.33
2019-04-07T08:33:20.449Z,100276.35
2019-04-07T08:35:50.224Z,100283.91
2019-04-07T08:38:23.479Z,100285.05
2019-04-07T08:40:52.910Z,100282.52
2019-04-07T08:43:23.502Z,100283.59
2019-04-07T08:45:53.692Z,100283.37
2019-04-07T08:48:24.006Z,100282.24
2019-04-07T08:50:53.166Z,100277.41
2019-04-07T08:53:22.888Z,100270.67
2019-04-07T08:55:54.766Z,100274.70
2019-04-07T08:58:27.884Z,100274.20
2019-04-07T09:00:54.979Z,100272.66
2019-04-07T09:03:24.430Z,100275.98
2019-04-07T09:05:56.479Z,100277.25
2019-04-07T09:08:24.429Z,100282.34
2019-04-07T09:11:05.316Z,100281.81
2019-04-07T09:13:34.686Z,100270.81
2019-04-07T09:16:17.350Z,100279.72
2019-04-07T09:19:10.141Z,100271.23
2019-04-07T09:21:50.693Z,100280.55
2019-04-07T09:24:38.314Z,100285.23
2019-04-07T09:27:23.493Z,100284.09
2019-04-07T09:30:01.083Z,100285.00
2019-04-07T09:32:41.642Z,100286.31
2019-04-07T09:35:38.823Z,100283.00
2019-04-07T09:38:33.477Z,100288.14
2019-04-07T09:41:23.135Z,100283.15
2019-04-07T09:44:02.868Z,100283.05
2019-04-07T09:46:54.146Z,100288.91
2019-04-07T09:49:48.158Z,100286.23
2019-04-07T09:52:39.591Z,100290.10
2019-04-07T09:55:33.730Z,100296.67
2019-04-07T09:58:19.323Z,100292.72
2019-04-07T10:01:07.205Z,100290.02
2019-04-07T10:04:12.065Z,100287.05
2019-04-07T10:07:09.632Z,100289.63
2019-04-07T10:10:04.626Z,100291.13
2019-04-07T10:12:50.073Z,100291.41
2019-04-07T10:15:35.273Z,100294.80
2019-04-07T10:18:10.850Z,100294.30
2019-04-07T10:20:52.503Z,100305.30
2019-04-07T10:23:43.719Z,100292.88
2019-04-07T10:26:26.948Z,100294.01
2019-04-07T10:29:04.589Z,100296.61
2019-04-07T10:31:46.372Z,100300.77
2019-04-07T10:34:27.337Z,100301.70
2019-04-07T10:37:03.914Z,100307.84
2019-04-07T10:39:43.287Z,100304.30
2019-04-07T10:42:31.509Z,100307.31
2019-04-07T10:45:18.259Z,100313.48
2019-04-07T10:48:15.586Z,100317.09
2019-04-07T10:51:03.059Z,100316.42
2019-04-07T10:53:54.264Z,100311.16
2019-04-07T10:56:30.885Z,100317.72
2019-04-07T10:59:21.038Z,100316.81
2019-04-07T11:02:07.029Z,100311.30
2019-04-07T11:04:55.266Z,100307.81
2019-04-07T11:07:33.845Z,100309.60
2019-04-07T11:10:32.551Z,100310.41
2019-04-07T11:13:23.195Z,100299.51
2019-04-07T11:16:26.523Z,100300.22
2019-04-07T11:19:17.780Z,100310.59
2019-04-07T11:22:04.640Z,100301.78
2019-04-07T11:25:05.379Z,100303.95
2019-04-07T11:27:53.977Z,100297.22
2019-04-07T11:30:52.019Z,100302.16
2019-04-07T11:33:40.218Z,100299.08
2019-04-07T11:36:21.656Z,100296.61
2019-04-07T11:39:12.184Z,100298.69
2019-04-07T11:42:01.091Z,100309.09
2019-04-07T11:44:49.844Z,100305.83
2019-04-07T11:47:38.023Z,100311.69
2019-04-07T11:50:23.377Z,100312.16
2019-04-07T11:53:04.196Z,100310.09
2019-04-07T11:56:06.894Z,100311.41
2019-04-07T11:58:52.923Z,100312.39
2019-04-07T12:01:49.486Z,100316.01
2019-04-07T12:04:40.431Z,100313.17
2019-04-07T12:07:39.150Z,100319.05
2019-04-07T12:10:36.478Z,100318.75
2019-04-07T12:13:23.585Z,100328.58
2019-04-07T12:16:14.556Z,100326.70
2019-04-07T12:18:59.088Z,100318.70
2019-04-07T12:21:53.071Z,100316.64
2019-04-07T12:24:43.463Z,100318.70
2019-04-07T12:27:35.695Z,100320.73
2019-04-07T12:30:32.648Z,100320.95
2019-04-07T12:33:17.944Z,100329.56
2019-04-07T12:36:03.262Z,100324.87
2019-04-07T12:38:57.390Z,100326.61
2019-04-07T12:41:48.947Z,100330.28
2019-04-07T12:44:29.005Z,100329.70
2019-04-07T12:47:09.165Z,100322.16
2019-04-07T12:50:00.019Z,100327.52
2019-04-07T12:52:42.142Z,100325.69
2019-04-07T12:55:55.035Z,100331.74
2019-04-07T12:58:36.864Z,100328.42
2019-04-07T13:01:25.262Z,100329.17
2019-04-07T13:04:13.312Z,100320.60
2019-04-07T13:06:58.978Z,100324.44
2019-04-07T13:09:50.097Z,100323.31
2019-04-07T13:12:37.597Z,100322.23
2019-04-07T13:15:35.185Z,100322.42
2019-04-07T13:18:27.746Z,100315.69
2019-04-07T13:21:23.013Z,100322.09
2019-04-07T13:23:57.275Z,100328.09
2019-04-07T13:27:04.073Z,100322.77
2019-04-07T13:29:41.210Z,100321.27
2019-04-07T13:32:20.783Z,100316.33
2019-04-07T13:35:10.682Z,100316.04
2019-04-07T13:37:45.620Z,100317.97
2019-04-07T13:40:47.019Z,100318.06
2019-04-07T13:43:38.431Z,100325.36
2019-04-07T13:46:30.901Z,100328.32
2019-04-07T13:49:17.574Z,100326.94
2019-04-07T13:52:04.391Z,100319.27
2019-04-07T13:54:51.581Z,100325.03
2019-04-07T13:57:57.717Z,100318.42
2019-04-07T14:00:38.147Z,100323.47
2019-04-07T14:03:19.225Z,100315.42
2019-04-07T14:06:02.387Z,100313.55
2019-04-07T14:09:00.096Z,100312.31
2019-04-07T14:12:05.439Z,100312.11
2019-04-07T14:15:05.259Z,100309.46
2019-04-07T14:18:01.113Z,100311.23
2019-04-07T14:20:44.809Z,100310.41
2019-04-07T14:23:54.637Z,100310.01
2019-04-07T14:26:51.588Z,100303.38
2019-04-07T14:29:37.025Z,100308.94
2019-04-07T14:32:21.987Z,100297.45
2019-04-07T14:35:09.343Z,100308.25
2019-04-07T14:37:55.825Z,100300.94
2019-04-07T14:40:43.508Z,100305.61
2019-04-07T14:43:29.912Z,100311.52
2019-04-07T14:46:16.197Z,100308.56
2019-04-07T14:49:14.129Z,100310.47
2019-04-07T14:51:54.101Z,100306.39
2019-04-07T14:54:33.499Z,100306.23
2019-04-07T14:57:28.812Z,100305.14
2019-04-07T15:00:17.286Z,100312.64
2019-04-07T15:02:47.702Z,100306.50
2019-04-07T15:05:25.555Z,100310.08
2019-04-07T15:08:20.438Z,100309.25
2019-04-07T15:10:52.764Z,100308.77
2019-04-07T15:13:27.957Z,100316.98
2019-04-07T15:15:57.172Z,100315.63
2019-04-07T15:18:27.523Z,100313.38
2019-04-07T15:21:01.193Z,100307.98
2019-04-07T15:23:33.044Z,100311.27
2019-04-07T15:26:03.359Z,100312.53
2019-04-07T15:28:33.975Z,100315.11
2019-04-07T15:31:04.280Z,100324.19
2019-04-07T15:33:34.186Z,100315.73
2019-04-07T15:36:07.040Z,100326.53
2019-04-07T15:38:35.625Z,100326.30
2019-04-07T15:41:09.900Z,100326.91
2019-04-07T15:43:37.164Z,100318.95
2019-04-07T15:46:07.451Z,100322.20
2019-04-07T15:48:37.653Z,100311.57
2019-04-07T15:51:06.807Z,100318.67
2019-04-07T15:53:36.841Z,100320.54
2019-04-07T15:56:07.096Z,100319.17
2019-04-07T15:58:37.274Z,100331.98
2019-04-07T16:01:09.049Z,100323.14
2019-04-07T16:03:37.287Z,100336.72
2019-04-07T16:06:07.734Z,100343.75
2019-04-07T16:08:36.892Z,100353.34
2019-04-07T16:11:05.916Z,100363.19
2019-04-07T16:13:35.885Z,100357.58
2019-04-07T16:16:05.846Z,100371.97
2019-04-07T16:18:39.511Z,100373.95
2019-04-07T16:21:09.018Z,100385.84
2019-04-07T16:23:38.067Z,100393.05
2019-04-07T16:26:07.725Z,100401.92
2019-04-07T16:28:36.902Z,100403.16
2019-04-07T16:31:07.363Z,100406.25
2019-04-07T16:33:37.261Z,100403.06
2019-04-07T16:36:06.502Z,100406.84
2019-04-07T16:38:36.534Z,100401.86
2019-04-07T16:41:06.561Z,100406.75
2019-04-07T16:43:37.715Z,100411.94
2019-04-07T16:46:07.739Z,100406.22
2019-04-07T16:48:39.842Z,100409.46
2019-04-07T16:51:11.279Z,100412.75
2019-04-07T16:53:42.776Z,100406.64
2019-04-07T16:56:11.341Z,100399.07
2019-04-07T16:58:41.541Z,100414.48
2019-04-07T17:01:11.033Z,100423.59
2019-04-07T17:03:40.864Z,100446.52
2019-04-07T17:06:12.294Z,100450.33
2019-04-07T17:08:41.122Z,100465.66
2019-04-07T17:11:10.867Z,100457.11
2019-04-07T17:13:42.663Z,100459.39
2019-04-07T17:16:12.230Z,100442.73
2019-04-07T17:18:43.043Z,100431.89
2019-04-07T17:21:16.222Z,100434.15
2019-04-07T17:23:45.793Z,100429.84
2019-04-07T17:26:14.938Z,100427.28
2019-04-07T17:28:45.172Z,100427.45
2019-04-07T17:31:14.816Z,100426.77
2019-04-07T17:33:43.913Z,100426.06
2019-04-07T17:36:17.679Z,100428.41
2019-04-07T17:38:53.743Z,100423.22
2019-04-07T17:41:23.459Z,100426.73
2019-04-07T17:44:13.227Z,100433.20
2019-04-07T17:46:49.133Z,100431.12
2019-04-07T17:49:36.079Z,100435.70
2019-04-07T17:52:18.617Z,100429.08
2019-04-07T17:55:04.753Z,100420.97
2019-04-07T17:58:11.578Z,100415.59
2019-04-07T18:00:56.447Z,100411.31
2019-04-07T18:03:46.248Z,100413.48
2019-04-07T18:06:53.902Z,100413.55
2019-04-07T18:09:37.280Z,100414.16
2019-04-07T18:12:23.938Z,100421.23
2019-04-07T18:15:11.699Z,100414.44
2019-04-07T18:17:58.895Z,100415.48
2019-04-07T18:20:38.260Z,100415.91
2019-04-07T18:23:40.392Z,100417.11
2019-04-07T18:26:29.738Z,100423.68
2019-04-07T18:29:08.227Z,100423.68
2019-04-07T18:31:58.702Z,100431.37
2019-04-07T18:34:36.644Z,100448.33
2019-04-07T18:37:12.961Z,100448.33
2019-04-07T18:40:02.414Z,100449.02
2019-04-07T18:42:59.558Z,100464.58
2019-04-07T18:45:59.794Z,100466.42
2019-04-07T18:48:46.552Z,100471.35
2019-04-07T18:51:27.299Z,100486.66
2019-04-07T18:54:14.716Z,100505.13
2019-04-07T18:57:01.544Z,100516.86
2019-04-07T18:59:50.615Z,100527.84
2019-04-07T19:02:28.930Z,100541.55
2019-04-07T19:05:26.405Z,100544.34
2019-04-07T19:08:17.444Z,100542.14
2019-04-07T19:11:14.235Z,100536.54
2019-04-07T19:14:07.337Z,100540.09
2019-04-07T19:17:00.773Z,100538.37
2019-04-07T19:19:46.678Z,100552.64
2019-04-07T19:22:51.273Z,100562.20
2019-04-07T19:25:42.632Z,100579.41
2019-04-07T19:28:19.375Z,100575.43
2019-04-07T19:31:19.091Z,100575.43
2019-04-07T19:34:08.307Z,100594.66
2019-04-07T19:36:55.064Z,100615.22
2019-04-07T19:39:36.256Z,100623.13
2019-04-07T19:42:16.472Z,100622.48
2019-04-07T19:44:55.439Z,100628.33
2019-04-07T19:47:55.522Z,100621.45
2019-04-07T19:50:37.340Z,100626.98
2019-04-07T19:53:15.302Z,100630.73
2019-04-07T19:55:59.557Z,100637.88
2019-04-07T19:58:46.923Z,100642.66
2019-04-07T20:01:35.743Z,100629.86
2019-04-07T20:04:30.746Z,100629.86
2019-04-07T20:07:34.034Z,100632.55
2019-04-07T20:10:25.990Z,100624.83
2019-04-07T20:13:11.265Z,100626.52
2019-04-07T20:15:58.080Z,100624.69
2019-04-07T20:18:42.426Z,100613.42
2019-04-07T20:21:34.816Z,100605.82
2019-04-07T20:24:21.733Z,100603.37
2019-04-07T20:27:07.468Z,100602.19
2019-04-07T20:29:48.434Z,100596.42
2019-04-07T20:32:36.107Z,100602.71
2019-04-07T20:35:28.839Z,100601.80
2019-04-07T20:38:33.682Z,100603.35
2019-04-07T20:41:17.368Z,100609.37
2019-04-07T20:44:21.068Z,100604.84
2019-04-07T20:47:28.426Z,100598.06
2019-04-07T20:50:11.827Z,100596.63
2019-04-07T20:53:16.479Z,100600.96
2019-04-07T20:56:00.445Z,100603.14
2019-04-07T20:58:53.836Z,100613.42
2019-04-07T21:01:35.323Z,100615.59
2019-04-07T21:04:22.286Z,100635.19
2019-04-07T21:07:00.779Z,100653.75
2019-04-07T21:09:48.113Z,100664.59
2019-04-07T21:12:32.232Z,100666.39
2019-04-07T21:15:20.842Z,100666.39
2019-04-07T21:17:58.275Z,100666.28
2019-04-07T21:20:48.741Z,100665.44
2019-04-07T21:23:36.942Z,100654.91
2019-04-07T21:26:17.521Z,100649.44
2019-04-07T21:28:52.834Z,100637.05
2019-04-07T21:31:46.671Z,100631.85
2019-04-07T21:34:21.110Z,100625.62
2019-04-07T21:37:14.799Z,100624.86
2019-04-07T21:39:48.283Z,100631.83
2019-04-07T21:42:45.793Z,100621.37
2019-04-07T21:45:54.382Z,100618.69
2019-04-07T21:48:45.455Z,100611.66
2019-04-07T21:51:31.931Z,100618.20
2019-04-07T21:54:30.723Z,100604.61
2019-04-07T21:57:28.850Z,100599.02
2019-04-07T22:00:32.951Z,100588.42
2019-04-07T22:03:33.324Z,100576.37
2019-04-07T22:06:26.537Z,100571.36
2019-04-07T22:09:08.974Z,100578.80
2019-04-07T22:11:38.084Z,100573.80
2019-04-07T22:14:07.831Z,100587.68
2019-04-07T22:16:37.069Z,100578.22
2019-04-07T22:19:10.113Z,100578.22
2019-04-07T22:21:38.249Z,100567.03
2019-04-07T22:24:07.662Z,100582.03
2019-04-07T22:26:37.129Z,100584.38
2019-04-07T22:29:06.351Z,100579.39
2019-04-07T22:31:46.579Z,100579.39
2019-04-07T22:34:16.534Z,100594.62
2019-04-07T22:36:47.896Z,100600.48
2019-04-07T22:39:16.419Z,100600.48
2019-04-07T22:41:46.247Z,100601.00
2019-04-07T22:44:15.772Z,100601.00
2019-04-07T22:46:48.115Z,100601.12
2019-04-07T22:49:15.671Z,100606.02
2019-04-07T22:51:47.083Z,100614.19
2019-04-07T22:54:16.733Z,100616.94
2019-04-07T22:56:46.695Z,100633.49
2019-04-07T22:59:16.074Z,100637.63
2019-04-07T23:01:45.133Z,100652.23
2019-04-07T23:04:14.170Z,100649.70
2019-04-07T23:06:43.219Z,100659.70
2019-04-07T23:09:13.562Z,100659.82
2019-04-07T23:11:42.706Z,100663.20
2019-04-07T23:14:12.115Z,100658.13
2019-04-07T23:16:42.248Z,100655.42
2019-04-07T23:19:11.399Z,100647.35
2019-04-07T23:21:40.450Z,100640.84
2019-04-07T23:24:09.707Z,100640.54
2019-04-07T23:26:38.884Z,100638.45
2019-04-07T23:29:07.969Z,100639.55
2019-04-07T23:31:38.402Z,100638.78
2019-04-07T23:34:08.276Z,100639.08
2019-04-07T23:36:38.250Z,100631.23
2019-04-07T23:39:08.191Z,100624.63
2019-04-07T23:41:37.612Z,100625.39
2019-04-07T23:44:07.329Z,100625.20
2019-04-07T23:46:36.851Z,100624.22
2019-04-07T23:49:06.233Z,100626.48
2019-04-07T23:51:35.266Z,100626.25
2019-04-07T23:54:09.146Z,100630.45
2019-04-07T23:56:39.483Z,100626.96
2019-04-07T23:59:10.275Z,100625.78
